Time;durP1;ratioP1;P1;durP2;ratioP2;P2;SDS_P1;SDS_P2;PMS_P1;PMS_P2;Temp;Humidity;BMP_temperature;BMP_pressure;BME280_temperature;BME280_humidity;BME280_pressure;Samples;Min_cycle;Max_cycle;Signal;HPM_P1;HPM_P2
2021/05/01 00:00:19;;;;;;;38.13;17.60;;;4.60;99.90;;;;;;2090641;28;20192;-69
2021/05/01 00:01:20;;;;;;;33.00;17.77;;;4.60;99.90;;;;;;2089838;28;20182;-69
2021/05/01 00:02:20;;;;;;;27.40;15.93;;;4.60;99.90;;;;;;2090281;28;20854;-69
2021/05/01 00:03:21;;;;;;;33.83;18.33;;;4.60;99.90;;;;;;2090174;28;20188;-69
2021/05/01 00:04:22;;;;;;;45.27;20.20;;;4.50;99.90;;;;;;2090372;28;20178;-69
2021/05/01 00:05:22;;;;;;;52.77;22.23;;;4.50;99.90;;;;;;2090680;28;20180;-68
2021/05/01 00:06:23;;;;;;;44.40;20.00;;;4.40;99.90;;;;;;2090260;28;20591;-69
2021/05/01 00:07:24;;;;;;;39.83;19.97;;;4.50;99.90;;;;;;2090125;28;20178;-69
2021/05/01 00:08:28;;;;;;;43.87;20.70;;;4.50;99.90;;;;;;2090177;28;20178;-69
2021/05/01 00:09:29;;;;;;;33.33;16.30;;;4.50;99.90;;;;;;2090267;28;20180;-69
2021/05/01 00:10:30;;;;;;;79.20;22.33;;;4.50;99.90;;;;;;2090118;28;20258;-69
2021/05/01 00:11:31;;;;;;;36.80;17.40;;;4.50;99.90;;;;;;2072974;28;20189;-69
2021/05/01 00:12:31;;;;;;;58.63;19.70;;;4.50;99.90;;;;;;2064706;28;20223;-70
2021/05/01 00:13:34;;;;;;;40.27;17.50;;;4.50;99.90;;;;;;2073136;28;20184;-69
2021/05/01 00:14:36;;;;;;;43.85;18.38;;;4.40;99.90;;;;;;2081237;28;20187;-69
2021/05/01 00:15:37;;;;;;;41.85;16.42;;;4.40;99.90;;;;;;2073352;28;20194;-69
2021/05/01 00:16:38;;;;;;;30.77;15.13;;;4.40;99.90;;;;;;2081418;28;20199;-69
2021/05/01 00:17:39;;;;;;;30.93;16.13;;;4.40;99.90;;;;;;2090281;28;20552;-68
2021/05/01 00:18:40;;;;;;;32.15;16.20;;;4.30;99.90;;;;;;2081386;28;20182;-70
2021/05/01 00:19:40;;;;;;;37.17;17.10;;;4.30;99.90;;;;;;2073422;28;20663;-70
2021/05/01 00:20:41;;;;;;;29.27;15.63;;;4.30;99.90;;;;;;2081413;28;20186;-69
2021/05/01 00:21:42;;;;;;;51.47;20.03;;;4.30;99.90;;;;;;2081153;28;20203;-70
2021/05/01 00:22:43;;;;;;;30.63;16.80;;;4.30;99.90;;;;;;2081483;28;20174;-69
2021/05/01 00:23:43;;;;;;;37.77;16.80;;;4.30;99.90;;;;;;2081477;28;20178;-69
2021/05/01 00:24:44;;;;;;;53.80;20.03;;;4.30;99.90;;;;;;2081345;28;20175;-69
2021/05/01 00:25:45;;;;;;;44.27;17.60;;;4.40;99.90;;;;;;2090147;28;20200;-69
2021/05/01 00:26:45;;;;;;;35.00;16.43;;;4.40;99.90;;;;;;2090216;28;20590;-69
2021/05/01 00:27:46;;;;;;;40.53;18.30;;;4.40;99.90;;;;;;2090363;28;20181;-70
2021/05/01 00:28:48;;;;;;;30.17;15.80;;;4.40;99.90;;;;;;2090068;28;20568;-69
2021/05/01 00:29:48;;;;;;;27.98;15.15;;;4.40;99.90;;;;;;2090180;28;20224;-70
2021/05/01 00:30:49;;;;;;;40.13;18.27;;;4.30;99.90;;;;;;2090106;28;20699;-69
2021/05/01 00:31:50;;;;;;;33.67;16.83;;;4.30;99.90;;;;;;2090013;28;20181;-69
2021/05/01 00:32:51;;;;;;;27.60;14.23;;;4.30;99.90;;;;;;2090133;28;20223;-68
2021/05/01 00:33:51;;;;;;;41.30;17.80;;;4.30;99.90;;;;;;2090077;28;20186;-69
2021/05/01 00:34:52;;;;;;;53.90;20.53;;;4.20;99.90;;;;;;2089410;28;20186;-69
2021/05/01 00:35:53;;;;;;;100.27;19.63;;;4.20;99.90;;;;;;2089653;28;20205;-69
2021/05/01 00:36:53;;;;;;;95.03;20.43;;;4.10;99.90;;;;;;2089887;28;20187;-69
2021/05/01 00:37:54;;;;;;;53.20;17.77;;;4.10;99.90;;;;;;2090046;28;20182;-69
2021/05/01 00:38:55;;;;;;;84.53;22.77;;;4.00;99.90;;;;;;2090004;28;20280;-68
2021/05/01 00:39:56;;;;;;;39.72;16.33;;;4.00;99.90;;;;;;2081089;28;20190;-69
2021/05/01 00:40:59;;;;;;;78.70;21.27;;;4.00;99.90;;;;;;2081236;28;20937;-69
2021/05/01 00:42:00;;;;;;;76.53;22.35;;;4.10;99.90;;;;;;2089738;28;20274;-69
2021/05/01 00:43:01;;;;;;;128.80;21.30;;;4.20;99.90;;;;;;2089921;28;20213;-68
2021/05/01 00:44:09;;;;;;;107.60;18.83;;;4.10;99.90;;;;;;2090023;28;20174;-69
2021/05/01 00:45:10;;;;;;;105.05;18.80;;;4.10;99.90;;;;;;2080946;28;20425;-70
2021/05/01 00:46:11;;;;;;;117.70;23.33;;;4.00;99.90;;;;;;2072833;28;20553;-69
2021/05/01 00:47:11;;;;;;;86.33;23.83;;;4.00;99.90;;;;;;2080917;28;20186;-69
2021/05/01 00:48:12;;;;;;;96.60;21.57;;;4.00;99.90;;;;;;2090019;28;20621;-70
2021/05/01 00:49:13;;;;;;;127.17;20.17;;;3.90;99.90;;;;;;2089843;28;20212;-69
2021/05/01 00:50:14;;;;;;;106.35;24.73;;;4.00;99.90;;;;;;2089788;28;20178;-70
2021/05/01 00:51:15;;;;;;;89.03;16.63;;;4.10;99.90;;;;;;2089648;28;20584;-70
2021/05/01 00:52:16;;;;;;;107.23;17.63;;;4.10;99.90;;;;;;2089841;28;20176;-69
2021/05/01 00:53:17;;;;;;;127.40;20.80;;;4.00;99.90;;;;;;2081010;28;20173;-69
2021/05/01 00:54:17;;;;;;;247.37;23.43;;;4.10;99.90;;;;;;2080967;28;20743;-70
2021/05/01 00:55:18;;;;;;;273.57;24.70;;;4.10;99.90;;;;;;2080831;28;20185;-70
2021/05/01 00:56:20;;;;;;;229.93;20.67;;;4.10;99.90;;;;;;2072677;28;20206;-69
2021/05/01 00:57:21;;;;;;;260.75;25.27;;;4.00;99.90;;;;;;2081134;28;20272;-70
2021/05/01 00:58:22;;;;;;;289.55;27.20;;;4.00;99.90;;;;;;2080872;28;20182;-69
2021/05/01 00:59:23;;;;;;;176.77;28.02;;;3.90;99.90;;;;;;2080951;28;20199;-69
2021/05/01 01:01:36;;;;;;;137.60;20.17;;;3.90;99.90;;;;;;2089462;28;20442;-69
2021/05/01 01:02:37;;;;;;;376.38;34.47;;;4.00;99.90;;;;;;2080857;28;20269;-69
2021/05/01 01:03:40;;;;;;;218.33;20.03;;;4.00;99.90;;;;;;2080907;28;20177;-69
2021/05/01 01:04:40;;;;;;;169.30;21.80;;;4.00;99.90;;;;;;2089711;28;20389;-69
2021/05/01 01:05:41;;;;;;;203.37;22.17;;;4.00;99.90;;;;;;2089817;28;20943;-69
2021/05/01 01:06:42;;;;;;;190.47;25.47;;;3.90;99.90;;;;;;2089561;28;20216;-70
2021/05/01 01:07:43;;;;;;;360.10;36.70;;;3.90;99.90;;;;;;2089691;28;20231;-70
2021/05/01 01:08:45;;;;;;;263.07;26.63;;;4.00;99.90;;;;;;2080787;28;20495;-70
2021/05/01 01:09:46;;;;;;;296.98;27.50;;;3.90;99.90;;;;;;2072492;28;20558;-69
2021/05/01 01:10:47;;;;;;;368.05;34.03;;;3.90;99.90;;;;;;2080626;28;20233;-69
2021/05/01 01:11:48;;;;;;;182.07;24.30;;;3.90;99.90;;;;;;2080599;28;20589;-70
2021/05/01 01:12:49;;;;;;;97.90;21.00;;;3.90;99.90;;;;;;2080803;28;20223;-69
2021/05/01 01:13:51;;;;;;;567.30;44.13;;;4.00;99.90;;;;;;2072665;28;20554;-69
2021/05/01 01:14:53;;;;;;;286.63;28.08;;;4.00;99.90;;;;;;2073005;28;20234;-70
2021/05/01 01:15:53;;;;;;;342.70;27.17;;;4.00;99.90;;;;;;2080700;28;20300;-70
2021/05/01 01:16:54;;;;;;;130.00;18.83;;;4.10;99.90;;;;;;2080536;28;20182;-69
2021/05/01 01:17:56;;;;;;;331.73;35.90;;;4.10;99.90;;;;;;2080817;28;20230;-69
2021/05/01 01:18:57;;;;;;;173.05;29.17;;;4.00;99.90;;;;;;2072669;28;20276;-69
2021/05/01 01:19:58;;;;;;;125.80;26.02;;;4.00;99.90;;;;;;2080917;28;20186;-70
2021/05/01 01:21:02;;;;;;;123.20;26.63;;;4.10;99.90;;;;;;2072537;28;20193;-70
2021/05/01 01:22:10;;;;;;;244.57;33.45;;;4.10;99.90;;;;;;2065167;28;20314;-69
2021/05/01 01:23:11;;;;;;;237.82;33.60;;;4.10;99.90;;;;;;2073385;28;20178;-70
2021/05/01 01:24:12;;;;;;;92.88;23.27;;;4.10;99.90;;;;;;2072571;28;20176;-70
2021/05/01 01:25:14;;;;;;;260.13;33.38;;;4.10;99.90;;;;;;2080676;28;20766;-69
2021/05/01 01:26:15;;;;;;;229.98;31.77;;;4.10;99.90;;;;;;2080547;28;20708;-70
2021/05/01 01:27:15;;;;;;;109.40;21.93;;;4.00;99.90;;;;;;2072423;28;20195;-70
2021/05/01 01:28:16;;;;;;;123.30;23.73;;;4.00;99.90;;;;;;2072471;28;20180;-70
2021/05/01 01:29:17;;;;;;;111.77;22.90;;;4.00;99.90;;;;;;2080637;28;20567;-69
2021/05/01 01:30:24;;;;;;;233.80;26.15;;;3.90;99.90;;;;;;2080739;28;20659;-70
2021/05/01 01:31:25;;;;;;;132.82;23.95;;;3.90;99.90;;;;;;2072142;28;20195;-69
2021/05/01 01:32:26;;;;;;;73.63;18.47;;;3.90;99.90;;;;;;2064806;28;20184;-70
2021/05/01 01:33:27;;;;;;;110.67;17.07;;;3.90;99.90;;;;;;2080504;28;20180;-69
2021/05/01 01:34:27;;;;;;;75.73;16.53;;;3.90;99.90;;;;;;2089511;28;20653;-69
2021/05/01 01:35:28;;;;;;;152.27;21.90;;;3.90;99.90;;;;;;2089405;28;20189;-70
2021/05/01 01:36:29;;;;;;;185.07;20.67;;;3.80;99.90;;;;;;2089552;28;20203;-69
2021/05/01 01:37:30;;;;;;;79.35;15.75;;;3.80;99.90;;;;;;2089459;28;20190;-70
2021/05/01 01:38:30;;;;;;;207.87;24.67;;;3.80;99.90;;;;;;2089439;28;20185;-70
2021/05/01 01:39:31;;;;;;;299.87;34.33;;;3.70;99.90;;;;;;2089386;28;20181;-70
2021/05/01 01:40:32;;;;;;;199.60;23.33;;;3.80;99.90;;;;;;2089478;28;20184;-69
2021/05/01 01:41:33;;;;;;;279.35;31.40;;;3.80;99.90;;;;;;2080184;28;20213;-69
2021/05/01 01:42:34;;;;;;;295.07;33.27;;;3.80;99.90;;;;;;2072411;28;20229;-70
2021/05/01 01:43:37;;;;;;;259.20;30.03;;;3.80;99.90;;;;;;2080389;28;20171;-70
2021/05/01 01:44:37;;;;;;;89.68;15.82;;;3.80;99.90;;;;;;2089262;28;20184;-69
2021/05/01 01:45:38;;;;;;;430.40;41.10;;;3.80;99.90;;;;;;2081655;28;20632;-69
2021/05/01 01:46:39;;;;;;;67.70;14.50;;;3.80;99.90;;;;;;2081618;28;20278;-70
2021/05/01 01:47:40;;;;;;;75.97;14.93;;;3.80;99.90;;;;;;2080484;28;20183;-69
2021/05/01 01:48:40;;;;;;;82.27;15.70;;;3.70;99.90;;;;;;2072453;28;20467;-69
2021/05/01 01:49:41;;;;;;;205.77;26.57;;;3.70;99.90;;;;;;2080369;28;20293;-69
2021/05/01 01:50:42;;;;;;;256.87;29.27;;;3.70;99.90;;;;;;2089340;28;20185;-70
2021/05/01 01:51:43;;;;;;;148.47;16.67;;;3.70;99.90;;;;;;2080148;28;20185;-70
2021/05/01 01:52:44;;;;;;;111.17;16.40;;;3.70;99.90;;;;;;2080636;28;20185;-69
2021/05/01 01:53:44;;;;;;;86.75;15.18;;;3.70;99.90;;;;;;2080411;28;20181;-69
2021/05/01 01:54:45;;;;;;;209.67;26.17;;;3.70;99.90;;;;;;2080363;28;20182;-69
2021/05/01 01:55:46;;;;;;;80.87;18.30;;;3.70;99.90;;;;;;2089294;28;20196;-69
2021/05/01 01:56:47;;;;;;;131.60;18.13;;;3.70;99.90;;;;;;2089267;28;20643;-70
2021/05/01 01:57:49;;;;;;;89.73;16.67;;;3.70;99.90;;;;;;2080563;28;20248;-69
2021/05/01 01:58:50;;;;;;;124.38;19.40;;;3.70;99.90;;;;;;2072457;28;20618;-70
2021/05/01 01:59:50;;;;;;;333.40;32.53;;;3.70;99.90;;;;;;2080548;28;20281;-71
2021/05/01 02:00:53;;;;;;;155.90;21.70;;;3.80;99.90;;;;;;2089216;28;20692;-69
2021/05/01 02:01:54;;;;;;;108.20;16.40;;;3.70;99.90;;;;;;2080200;28;20236;-69
2021/05/01 02:02:55;;;;;;;84.32;15.20;;;3.70;99.90;;;;;;2080382;28;20222;-69
2021/05/01 02:03:56;;;;;;;82.47;13.25;;;3.70;99.90;;;;;;2080623;28;20181;-70
2021/05/01 02:04:58;;;;;;;106.90;16.17;;;3.60;99.90;;;;;;2080562;28;20181;-70
2021/05/01 02:05:59;;;;;;;115.22;17.23;;;3.60;99.90;;;;;;2089147;28;20193;-69
2021/05/01 02:07:00;;;;;;;173.97;24.77;;;3.60;99.90;;;;;;2089289;28;20177;-70
2021/05/01 02:08:00;;;;;;;94.25;15.82;;;3.60;99.90;;;;;;2089395;28;20179;-70
2021/05/01 02:09:01;;;;;;;139.03;17.13;;;3.60;99.90;;;;;;2089182;28;20201;-70
2021/05/01 02:10:04;;;;;;;113.30;18.80;;;3.70;99.90;;;;;;2089313;28;20521;-69
2021/05/01 02:11:05;;;;;;;181.07;21.65;;;3.70;99.90;;;;;;2088987;28;20182;-69
2021/05/01 02:12:06;;;;;;;109.83;19.53;;;3.80;99.90;;;;;;2089110;28;20181;-69
2021/05/01 02:13:08;;;;;;;73.57;18.48;;;3.80;99.90;;;;;;2089237;28;20230;-70
2021/05/01 02:14:09;;;;;;;119.50;17.85;;;3.80;99.90;;;;;;2080417;28;20185;-70
2021/05/01 02:15:18;;;;;;;92.40;18.50;;;3.80;99.90;;;;;;2080310;28;20270;-70
2021/05/01 02:16:19;;;;;;;96.35;19.15;;;3.90;99.90;;;;;;2088637;28;20197;-70
2021/05/01 02:17:20;;;;;;;77.30;17.27;;;3.90;99.90;;;;;;2089151;28;20655;-69
2021/05/01 02:18:21;;;;;;;61.90;17.43;;;3.90;99.90;;;;;;2089216;28;20188;-70
2021/05/01 02:19:21;;;;;;;75.37;15.60;;;3.90;99.90;;;;;;2080178;28;20185;-70
2021/05/01 02:20:25;;;;;;;90.60;16.87;;;3.90;99.90;;;;;;2075972;28;20200;-69
2021/05/01 02:21:26;;;;;;;106.88;19.02;;;3.90;99.90;;;;;;2077022;28;20272;-69
2021/05/01 02:22:27;;;;;;;107.97;15.93;;;3.90;99.90;;;;;;2079559;28;20192;-70
2021/05/01 02:23:27;;;;;;;82.73;15.70;;;3.90;99.90;;;;;;2089162;28;20226;-69
2021/05/01 02:24:28;;;;;;;75.53;15.17;;;3.80;99.90;;;;;;2089058;28;20182;-69
2021/05/01 02:25:29;;;;;;;121.90;18.87;;;3.80;99.90;;;;;;2089020;28;20176;-70
2021/05/01 02:26:30;;;;;;;85.88;17.45;;;3.80;99.90;;;;;;2088952;28;20200;-69
2021/05/01 02:27:31;;;;;;;83.50;19.63;;;3.80;99.90;;;;;;2089030;28;20202;-70
2021/05/01 02:28:31;;;;;;;222.67;26.97;;;3.90;99.90;;;;;;2088977;28;20561;-70
2021/05/01 02:29:32;;;;;;;100.40;19.90;;;3.90;99.90;;;;;;2089074;28;20208;-69
2021/05/01 02:30:33;;;;;;;113.83;20.33;;;3.90;99.90;;;;;;2088401;28;20196;-70
2021/05/01 02:31:34;;;;;;;86.80;15.20;;;3.90;99.90;;;;;;2088238;28;20198;-70
2021/05/01 02:32:35;;;;;;;84.20;16.40;;;3.90;99.90;;;;;;2088907;28;20184;-69
2021/05/01 02:33:35;;;;;;;99.70;13.67;;;3.90;99.90;;;;;;2089036;28;20187;-69
2021/05/01 02:34:36;;;;;;;185.23;22.20;;;3.80;99.90;;;;;;2089090;28;20190;-70
2021/05/01 02:35:38;;;;;;;338.93;27.47;;;3.90;99.90;;;;;;2088897;28;20516;-69
2021/05/01 02:36:39;;;;;;;268.77;24.83;;;3.80;99.90;;;;;;2089085;28;20181;-70
2021/05/01 02:37:42;;;;;;;178.43;18.57;;;3.80;99.90;;;;;;2089016;28;20181;-69
2021/05/01 02:38:43;;;;;;;127.65;14.85;;;3.80;99.90;;;;;;2080116;28;20652;-70
2021/05/01 02:39:44;;;;;;;91.53;14.60;;;3.70;99.90;;;;;;2071887;28;20186;-69
2021/05/01 02:40:45;;;;;;;147.77;18.27;;;3.70;99.90;;;;;;2080147;28;20522;-69
2021/05/01 02:41:45;;;;;;;510.23;34.13;;;3.70;99.90;;;;;;2088666;28;20287;-69
2021/05/01 02:42:46;;;;;;;261.10;21.63;;;3.60;99.90;;;;;;2089065;28;20180;-70
2021/05/01 02:43:47;;;;;;;162.15;16.00;;;3.60;99.90;;;;;;2088259;28;20243;-70
2021/05/01 02:44:48;;;;;;;78.67;13.87;;;3.70;99.90;;;;;;2088354;28;20732;-70
2021/05/01 02:45:49;;;;;;;161.43;20.23;;;3.70;99.90;;;;;;2088326;28;20204;-70
2021/05/01 02:46:49;;;;;;;106.28;16.45;;;3.70;99.90;;;;;;2088312;28;20176;-70
2021/05/01 02:47:50;;;;;;;107.40;14.80;;;3.70;99.90;;;;;;2088874;28;20188;-70
2021/05/01 02:48:51;;;;;;;135.37;18.20;;;3.70;99.90;;;;;;2088878;28;20181;-69
2021/05/01 02:49:51;;;;;;;77.20;12.43;;;3.70;99.90;;;;;;2088875;28;20172;-70
2021/05/01 02:50:52;;;;;;;137.80;13.50;;;3.80;99.90;;;;;;2088381;28;20263;-69
2021/05/01 02:51:53;;;;;;;65.33;11.60;;;3.80;99.90;;;;;;2088071;28;20232;-69
2021/05/01 02:52:53;;;;;;;130.47;14.73;;;3.90;99.90;;;;;;2089030;28;20178;-70
2021/05/01 02:53:54;;;;;;;194.17;16.50;;;3.90;99.90;;;;;;2079943;28;20178;-69
2021/05/01 02:54:55;;;;;;;171.27;17.47;;;3.90;99.90;;;;;;2080131;28;20181;-69
2021/05/01 02:55:56;;;;;;;204.93;21.37;;;3.80;99.90;;;;;;2088900;28;20982;-69
2021/05/01 02:56:56;;;;;;;139.23;17.40;;;3.80;99.90;;;;;;2088988;28;20644;-70
2021/05/01 02:57:57;;;;;;;158.57;18.03;;;3.80;99.90;;;;;;2088887;28;20177;-69
2021/05/01 02:58:57;;;;;;;93.73;14.07;;;3.80;99.90;;;;;;2088991;28;20180;-70
2021/05/01 03:00:02;;;;;;;94.80;12.97;;;3.80;99.90;;;;;;2088043;28;20193;-70
2021/05/01 03:01:03;;;;;;;109.20;14.88;;;3.80;99.90;;;;;;2088368;28;20179;-70
2021/05/01 03:02:04;;;;;;;178.73;21.92;;;3.60;99.90;;;;;;2088670;28;20205;-69
2021/05/01 03:03:04;;;;;;;254.60;20.57;;;3.70;99.90;;;;;;2089287;28;20180;-69
2021/05/01 03:04:05;;;;;;;252.00;24.93;;;3.60;99.90;;;;;;2089805;28;20675;-70
2021/05/01 03:05:08;;;;;;;94.40;14.10;;;3.60;99.90;;;;;;2088895;28;20188;-68
2021/05/01 03:06:09;;;;;;;111.93;14.65;;;3.60;99.90;;;;;;2080689;28;20199;-69
2021/05/01 03:07:10;;;;;;;78.03;14.87;;;3.60;99.90;;;;;;2080854;28;20174;-70
2021/05/01 03:08:10;;;;;;;89.13;14.57;;;3.60;99.90;;;;;;2089241;28;20607;-69
2021/05/01 03:09:11;;;;;;;72.30;12.70;;;3.70;99.90;;;;;;2089072;28;20773;-70
2021/05/01 03:10:22;;;;;;;137.40;15.10;;;3.70;99.90;;;;;;2088853;28;20208;-69
2021/05/01 03:11:22;;;;;;;70.60;12.15;;;3.50;99.90;;;;;;2088745;28;20172;-69
2021/05/01 03:12:23;;;;;;;86.77;15.23;;;3.50;99.90;;;;;;2088175;28;20187;-70
2021/05/01 03:13:24;;;;;;;215.60;26.17;;;3.50;99.90;;;;;;2088355;28;20177;-70
2021/05/01 03:14:25;;;;;;;156.13;14.90;;;3.50;99.90;;;;;;2088763;28;20268;-69
2021/05/01 03:15:26;;;;;;;156.73;19.77;;;3.50;99.90;;;;;;2079871;28;20229;-69
2021/05/01 03:16:27;;;;;;;83.97;16.03;;;3.50;99.90;;;;;;2079859;28;20177;-70
2021/05/01 03:17:27;;;;;;;127.70;14.57;;;3.50;99.90;;;;;;2088293;28;20273;-69
2021/05/01 03:18:28;;;;;;;124.40;14.47;;;3.60;99.90;;;;;;2079911;28;20216;-69
2021/05/01 03:19:29;;;;;;;79.03;14.73;;;3.60;99.90;;;;;;2080012;28;20177;-70
2021/05/01 03:20:29;;;;;;;148.27;15.67;;;3.70;99.90;;;;;;2088192;28;20176;-69
2021/05/01 03:21:30;;;;;;;155.23;15.17;;;3.70;99.90;;;;;;2079546;28;20182;-69
2021/05/01 03:22:31;;;;;;;101.07;15.60;;;3.80;99.90;;;;;;2080027;28;20691;-70
2021/05/01 03:23:31;;;;;;;116.87;18.17;;;3.80;99.90;;;;;;2088756;28;20196;-70
2021/05/01 03:24:33;;;;;;;163.97;17.30;;;3.80;99.90;;;;;;2088824;28;20685;-70
2021/05/01 03:25:34;;;;;;;130.02;17.75;;;3.80;99.90;;;;;;2088599;28;20205;-69
2021/05/01 03:26:35;;;;;;;85.80;12.87;;;3.80;99.90;;;;;;2088597;28;20192;-69
2021/05/01 03:27:37;;;;;;;251.93;14.33;;;3.80;99.90;;;;;;2088784;28;20172;-70
2021/05/01 03:28:38;;;;;;;210.77;15.40;;;3.80;99.90;;;;;;2088786;28;20769;-69
2021/05/01 03:29:38;;;;;;;177.00;15.70;;;3.80;99.90;;;;;;2088749;28;20181;-69
2021/05/01 03:30:39;;;;;;;119.77;12.77;;;3.80;99.90;;;;;;2080028;28;20529;-70
2021/05/01 03:31:40;;;;;;;160.37;16.40;;;3.80;99.90;;;;;;2071539;28;20567;-69
2021/05/01 03:32:42;;;;;;;179.93;20.67;;;3.70;99.90;;;;;;2071772;28;20186;-70
2021/05/01 03:33:43;;;;;;;160.63;15.18;;;3.70;99.90;;;;;;2081317;28;20275;-69
2021/05/01 03:34:44;;;;;;;90.20;11.85;;;3.70;99.90;;;;;;2081491;28;20957;-69
2021/05/01 03:35:44;;;;;;;124.73;15.50;;;3.70;99.90;;;;;;2073250;28;20243;-69
2021/05/01 03:36:45;;;;;;;232.93;22.67;;;3.70;99.90;;;;;;2081585;28;20173;-70
2021/05/01 03:37:48;;;;;;;143.80;18.53;;;3.80;99.90;;;;;;2081301;28;20718;-70
2021/05/01 03:38:48;;;;;;;118.22;18.17;;;3.80;99.90;;;;;;2081859;28;20181;-69
2021/05/01 03:39:49;;;;;;;240.23;20.53;;;3.80;99.90;;;;;;2089689;28;20187;-70
2021/05/01 03:40:50;;;;;;;248.93;23.70;;;3.80;99.90;;;;;;2089834;28;20197;-70
2021/05/01 03:41:51;;;;;;;272.77;21.92;;;3.80;99.90;;;;;;2089965;28;20227;-69
2021/05/01 03:42:52;;;;;;;244.03;21.37;;;3.70;99.90;;;;;;2090323;28;20665;-70
2021/05/01 03:43:52;;;;;;;133.23;15.87;;;3.70;99.90;;;;;;2089691;28;20184;-69
2021/05/01 03:44:54;;;;;;;99.63;14.80;;;3.60;99.90;;;;;;2089847;28;20174;-69
2021/05/01 03:45:56;;;;;;;73.28;15.20;;;3.60;99.90;;;;;;2089584;28;20725;-70
2021/05/01 03:46:57;;;;;;;183.70;18.67;;;3.70;99.90;;;;;;2089767;28;20581;-69
2021/05/01 03:47:57;;;;;;;129.43;14.57;;;3.60;99.90;;;;;;2090209;28;20188;-70
2021/05/01 03:48:58;;;;;;;186.53;17.70;;;3.70;99.90;;;;;;2090231;28;20180;-70
2021/05/01 03:49:59;;;;;;;137.80;16.40;;;3.70;99.90;;;;;;2090172;28;20238;-69
2021/05/01 03:51:00;;;;;;;145.07;14.63;;;3.70;99.90;;;;;;2089789;28;20173;-70
2021/05/01 03:52:00;;;;;;;106.90;16.30;;;3.60;99.90;;;;;;2089383;28;20176;-70
2021/05/01 03:53:01;;;;;;;41.20;9.70;;;3.60;99.90;;;;;;2090262;28;20177;-70
2021/05/01 03:54:03;;;;;;;75.97;12.20;;;3.60;99.90;;;;;;2089397;28;20686;-70
2021/05/01 03:55:05;;;;;;;100.07;15.27;;;3.50;99.90;;;;;;2089695;28;20196;-70
2021/05/01 03:56:06;;;;;;;144.57;14.35;;;3.50;99.90;;;;;;2091338;28;20218;-70
2021/05/01 03:57:07;;;;;;;132.70;14.23;;;3.50;99.90;;;;;;2089839;28;20287;-69
2021/05/01 03:58:07;;;;;;;259.07;21.77;;;3.50;99.90;;;;;;2090066;28;20226;-70
2021/05/01 03:59:08;;;;;;;128.03;20.00;;;3.50;99.90;;;;;;2090094;28;20663;-70
2021/05/01 04:00:10;;;;;;;85.53;12.50;;;3.50;99.90;;;;;;2081152;28;20201;-70
2021/05/01 04:01:10;;;;;;;196.02;17.23;;;3.50;99.90;;;;;;2081184;28;20826;-70
2021/05/01 04:02:11;;;;;;;99.10;13.63;;;3.60;99.90;;;;;;2089853;28;20217;-70
2021/05/01 04:03:12;;;;;;;140.23;15.03;;;3.60;99.90;;;;;;2090056;28;20181;-70
2021/05/01 04:04:12;;;;;;;72.67;14.27;;;3.60;99.90;;;;;;2081130;28;20175;-69
2021/05/01 04:05:13;;;;;;;80.50;11.93;;;3.60;99.90;;;;;;2081111;28;20212;-69
2021/05/01 04:06:14;;;;;;;179.23;22.10;;;3.60;99.90;;;;;;2081179;28;20193;-69
2021/05/01 04:07:15;;;;;;;141.03;16.50;;;3.60;99.90;;;;;;2081203;28;20204;-69
2021/05/01 04:08:16;;;;;;;112.30;14.87;;;3.70;99.90;;;;;;2089978;28;20256;-70
2021/05/01 04:09:16;;;;;;;129.80;14.67;;;3.70;99.90;;;;;;2090011;28;20180;-70
2021/05/01 04:10:18;;;;;;;142.70;16.53;;;3.70;99.90;;;;;;2089946;28;20218;-69
2021/05/01 04:11:19;;;;;;;117.03;16.27;;;3.70;99.90;;;;;;2080906;28;20672;-69
2021/05/01 04:12:19;;;;;;;169.57;18.40;;;3.70;99.90;;;;;;2081175;28;20219;-69
2021/05/01 04:13:20;;;;;;;114.33;15.67;;;3.70;99.90;;;;;;2089857;28;20187;-70
2021/05/01 04:14:21;;;;;;;98.83;14.73;;;3.60;99.90;;;;;;2089992;28;20195;-70
2021/05/01 04:15:21;;;;;;;229.63;21.90;;;3.70;99.90;;;;;;2089766;28;20193;-69
2021/05/01 04:16:22;;;;;;;105.03;16.43;;;3.70;99.90;;;;;;2089918;28;20237;-71
2021/05/01 04:17:23;;;;;;;185.93;20.93;;;3.70;99.90;;;;;;2080906;28;20281;-70
2021/05/01 04:18:24;;;;;;;199.20;24.83;;;3.80;99.90;;;;;;2081201;28;20192;-70
2021/05/01 04:19:24;;;;;;;142.73;19.73;;;3.80;99.90;;;;;;2089870;28;20181;-70
2021/05/01 04:20:25;;;;;;;129.37;14.77;;;3.90;99.90;;;;;;2089872;28;20199;-70
2021/05/01 04:21:26;;;;;;;139.33;16.33;;;3.90;99.90;;;;;;2089493;28;20189;-69
2021/05/01 04:22:27;;;;;;;145.30;22.27;;;3.90;99.90;;;;;;2081167;28;20274;-70
2021/05/01 04:23:27;;;;;;;204.67;20.33;;;3.80;99.90;;;;;;2080968;28;20177;-69
2021/05/01 04:24:28;;;;;;;221.07;24.97;;;3.80;99.90;;;;;;2089952;28;20230;-70
2021/05/01 04:25:29;;;;;;;147.87;17.97;;;3.90;99.90;;;;;;2089727;28;20219;-69
2021/05/01 04:26:29;;;;;;;129.33;17.67;;;3.80;99.90;;;;;;2089628;28;20192;-69
2021/05/01 04:27:30;;;;;;;108.90;14.13;;;3.80;99.90;;;;;;2104776;23;20180;-72
2021/05/01 04:28:31;;;;;;;95.60;14.50;;;3.80;99.90;;;;;;2097071;28;20273;-72
2021/05/01 04:29:32;;;;;;;90.05;14.15;;;3.70;99.90;;;;;;2098395;28;20179;-71
2021/05/01 04:30:33;;;;;;;226.40;22.43;;;3.80;99.90;;;;;;2098286;28;20176;-72
2021/05/01 04:31:34;;;;;;;76.57;14.05;;;3.80;99.90;;;;;;2097689;28;20173;-72
2021/05/01 04:32:35;;;;;;;95.37;18.57;;;3.80;99.90;;;;;;2098092;28;20200;-72
2021/05/01 04:33:35;;;;;;;96.90;18.30;;;3.80;99.90;;;;;;2098101;28;20181;-71
2021/05/01 04:34:36;;;;;;;89.17;19.37;;;3.80;99.90;;;;;;2098138;28;20275;-72
2021/05/01 04:35:37;;;;;;;149.80;23.40;;;3.90;99.90;;;;;;2098220;28;20215;-72
2021/05/01 04:36:38;;;;;;;66.40;16.50;;;4.00;99.90;;;;;;2098589;28;20215;-72
2021/05/01 04:37:38;;;;;;;102.70;17.77;;;4.00;99.90;;;;;;2095664;28;20605;-72
2021/05/01 04:38:39;;;;;;;102.70;22.40;;;4.00;99.90;;;;;;2090431;28;20177;-72
2021/05/01 04:39:40;;;;;;;49.27;14.73;;;4.00;99.90;;;;;;2090658;28;20183;-71
2021/05/01 04:40:40;;;;;;;64.67;16.77;;;4.00;99.90;;;;;;2090248;28;20601;-71
2021/05/01 04:41:41;;;;;;;93.67;19.97;;;4.00;99.90;;;;;;2090121;28;20205;-72
2021/05/01 04:42:49;;;;;;;85.63;17.70;;;4.00;99.90;;;;;;2081289;28;20182;-72
2021/05/01 04:43:49;;;;;;;82.75;18.35;;;4.00;99.90;;;;;;2082844;28;20178;-71
2021/05/01 04:44:50;;;;;;;77.93;20.17;;;4.00;99.90;;;;;;2090012;28;20179;-72
2021/05/01 04:45:53;;;;;;;99.53;23.30;;;4.10;99.90;;;;;;2090494;28;20192;-72
2021/05/01 04:46:54;;;;;;;155.55;24.58;;;4.10;99.90;;;;;;2089500;28;20181;-72
2021/05/01 04:47:55;;;;;;;112.73;21.27;;;4.10;99.90;;;;;;2089558;28;20727;-72
2021/05/01 04:48:55;;;;;;;54.20;16.20;;;4.20;99.90;;;;;;2090324;28;20257;-71
2021/05/01 04:49:56;;;;;;;32.87;13.23;;;4.20;99.90;;;;;;2090310;28;20616;-72
2021/05/01 04:50:57;;;;;;;72.10;15.83;;;4.30;99.90;;;;;;2089635;28;20279;-72
2021/05/01 04:51:59;;;;;;;48.50;16.65;;;4.30;99.90;;;;;;2089566;28;20192;-72
2021/05/01 04:53:01;;;;;;;111.78;17.10;;;4.30;99.90;;;;;;2089456;28;20188;-72
2021/05/01 04:54:03;;;;;;;75.20;16.33;;;4.30;99.90;;;;;;2089783;28;20185;-72
2021/05/01 04:55:13;;;;;;;78.93;21.88;;;4.30;99.90;;;;;;2089688;28;20693;-72
2021/05/01 04:56:13;;;;;;;70.25;20.58;;;4.30;99.90;;;;;;2089889;28;20171;-72
2021/05/01 04:57:14;;;;;;;62.93;20.03;;;4.40;99.90;;;;;;2089471;28;20222;-72
2021/05/01 04:58:15;;;;;;;45.50;18.50;;;4.50;99.90;;;;;;2089508;28;20194;-72
2021/05/01 04:59:16;;;;;;;49.72;17.67;;;4.40;99.90;;;;;;2089824;28;20179;-72
2021/05/01 05:00:18;;;;;;;74.10;19.87;;;4.50;99.90;;;;;;2090331;28;20209;-71
2021/05/01 05:01:19;;;;;;;39.78;18.48;;;4.50;99.90;;;;;;2089389;28;20228;-72
2021/05/01 05:02:20;;;;;;;65.80;22.67;;;4.50;99.90;;;;;;2089766;28;20274;-72
2021/05/01 05:03:20;;;;;;;44.37;17.53;;;4.50;99.90;;;;;;2090225;28;20249;-72
2021/05/01 05:04:21;;;;;;;53.47;20.20;;;4.50;99.90;;;;;;2090090;28;20212;-72
2021/05/01 05:05:22;;;;;;;48.57;19.80;;;4.50;99.90;;;;;;2089568;28;20652;-72
2021/05/01 05:06:22;;;;;;;62.17;20.20;;;4.50;99.90;;;;;;2089868;28;20174;-72
2021/05/01 05:07:23;;;;;;;47.30;21.33;;;4.50;99.90;;;;;;2089495;28;20182;-72
2021/05/01 05:08:24;;;;;;;55.80;19.38;;;4.50;99.90;;;;;;2089748;28;20235;-72
2021/05/01 05:09:25;;;;;;;82.93;21.33;;;4.60;99.90;;;;;;2090313;28;20181;-72
2021/05/01 05:10:25;;;;;;;91.87;20.03;;;4.60;99.90;;;;;;2090348;28;20186;-72
2021/05/01 05:11:26;;;;;;;56.67;19.23;;;4.70;99.90;;;;;;2089379;28;20198;-72
2021/05/01 05:12:27;;;;;;;48.80;18.83;;;4.70;99.90;;;;;;2089856;28;20380;-72